Time;durP1;ratioP1;P1;durP2;ratioP2;P2;SDS_P1;SDS_P2;PMS_P1;PMS_P2;Temp;Humidity;BMP_temperature;BMP_pressure;BME280_temperature;BME280_humidity;BME280_pressure;Samples;Min_cycle;Max_cycle;Signal;HPM_P1;HPM_P2
2021/01/13 00:01:31;;;;;;;18.65;10.52;;;;;;;-0.32;80.43;92516.41;5114084;28;20040;-46
2021/01/13 00:03:57;;;;;;;26.77;13.48;;;;;;;-0.34;79.98;92513.44;5114117;28;20031;-43
2021/01/13 00:06:23;;;;;;;20.98;10.98;;;;;;;-0.43;79.82;92516.44;5114575;28;20028;-44
2021/01/13 00:08:48;;;;;;;17.83;9.60;;;;;;;-0.37;80.17;92526.03;5113302;28;20046;-46
2021/01/13 00:11:15;;;;;;;17.23;10.00;;;;;;;-0.37;79.90;92515.19;5114137;28;20488;-46
2021/01/13 00:13:41;;;;;;;21.50;11.68;;;;;;;-0.40;79.96;92521.63;5114095;28;20031;-42
2021/01/13 00:16:07;;;;;;;19.73;11.05;;;;;;;-0.31;79.50;92517.88;5113940;28;20110;-46
2021/01/13 00:18:33;;;;;;;24.42;13.10;;;;;;;-0.46;79.75;92520.19;5113853;28;20467;-42
2021/01/13 00:20:58;;;;;;;27.38;14.48;;;;;;;-0.53;79.84;92529.56;5114029;27;20027;-44
2021/01/13 00:23:23;;;;;;;22.17;12.70;;;;;;;-0.42;79.70;92539.63;5113764;28;20444;-44
2021/01/13 00:25:49;;;;;;;25.90;12.45;;;;;;;-0.50;80.10;92534.00;5113809;28;20058;-45
2021/01/13 00:28:14;;;;;;;26.10;13.13;;;;;;;-0.44;80.71;92534.72;5113754;28;20059;-45
2021/01/13 00:30:39;;;;;;;23.75;13.25;;;;;;;-0.36;79.80;92538.38;5113900;28;20031;-43
2021/01/13 01:00:14;;;;;;;24.80;13.25;;;;;;;-0.44;80.72;92525.84;4882717;28;20066;-44
2021/01/13 01:02:40;;;;;;;25.88;13.88;;;;;;;-0.51;80.24;92521.69;5008663;28;20100;-42
2021/01/13 01:05:06;;;;;;;33.03;15.52;;;;;;;-0.53;80.59;92523.41;5026941;28;20505;-45
2021/01/13 01:07:32;;;;;;;32.90;14.85;;;;;;;-0.54;80.89;92516.53;5071207;28;20093;-42
2021/01/13 01:09:57;;;;;;;30.15;15.05;;;;;;;-0.55;80.72;92515.03;5092151;28;20478;-43
2021/01/13 01:12:22;;;;;;;31.88;14.60;;;;;;;-0.53;80.30;92510.59;5092320;28;20031;-42
2021/01/13 01:14:48;;;;;;;29.08;15.10;;;;;;;-0.53;80.51;92516.03;5092428;28;20024;-46
2021/01/13 01:17:14;;;;;;;27.70;13.93;;;;;;;-0.55;80.67;92515.78;5092479;28;20019;-46
2021/01/13 01:19:40;;;;;;;33.45;14.23;;;;;;;-0.76;80.18;92484.84;5092449;28;20024;-42
2021/01/13 01:22:05;;;;;;;24.35;12.23;;;;;;;-0.58;80.50;92511.34;5092349;28;20028;-45
2021/01/13 01:24:31;;;;;;;22.63;12.50;;;;;;;-0.57;80.15;92496.56;5092267;28;20020;-45
2021/01/13 01:26:56;;;;;;;29.15;13.63;;;;;;;-0.55;80.42;92507.66;5092176;28;20143;-44
2021/01/13 01:29:22;;;;;;;27.55;14.63;;;;;;;-0.51;80.81;92510.84;5092198;28;20420;-45
2021/01/13 01:31:51;;;;;;;27.25;14.40;;;;;;;-0.50;80.12;92509.59;5092084;28;20501;-46
2021/01/13 01:34:17;;;;;;;;;;;;;;;-0.46;80.47;92504.66;5092645;28;20031;-43
2021/01/13 01:36:42;;;;;;;24.35;13.80;;;;;;;-0.63;80.68;92492.41;5092095;28;19912;-43
2021/01/13 01:39:07;;;;;;;27.98;13.80;;;;;;;-0.64;81.13;92496.34;5092037;28;20078;-49
2021/01/13 01:41:33;;;;;;;26.60;13.75;;;;;;;-0.69;nan;92492.44;5091949;28;20024;-46
2021/01/13 01:43:58;;;;;;;23.33;13.50;;;;;;;-0.59;80.90;92495.59;5091964;28;20409;-46
2021/01/13 01:46:24;;;;;;;27.90;14.70;;;;;;;-0.58;80.93;92486.97;5091856;28;20024;-45
2021/01/13 01:48:53;;;;;;;38.78;19.60;;;;;;;-0.66;80.94;92483.31;5091798;28;20020;-42
2021/01/13 01:51:25;;;;;;;50.50;22.02;;;;;;;-0.71;81.48;92478.63;5091726;28;20034;-44
2021/01/13 01:54:23;;;;;;;36.75;17.25;;;;;;;-0.63;81.24;92485.03;5091105;28;20066;-44
2021/01/13 01:56:51;;;;;;;38.88;20.35;;;;;;;-0.59;80.78;92485.50;5082851;28;20174;-44
2021/01/13 01:59:19;;;;;;;28.92;16.20;;;;;;;-0.62;81.16;92481.06;5101624;28;20035;-44
2021/01/13 02:01:49;;;;;;;28.42;14.85;;;;;;;-0.61;80.80;92479.09;5111695;28;20048;-42
2021/01/13 02:04:34;;;;;;;28.33;13.25;;;;;;;-0.64;80.46;92480.84;5111907;28;20023;-42
2021/01/13 02:07:08;;;;;;;28.08;15.70;;;;;;;-0.80;80.94;92474.25;5111828;28;20401;-46
2021/01/13 02:09:34;;;;;;;22.48;12.40;;;;;;;-0.72;81.09;92469.06;5111807;28;20122;-43
2021/01/13 02:12:00;;;;;;;23.75;12.85;;;;;;;-0.72;81.08;92460.91;5111657;28;20122;-43
2021/01/13 02:14:27;;;;;;;24.52;13.07;;;;;;;-0.66;81.44;92458.91;5110304;28;20034;-44
2021/01/13 02:16:57;;;;;;;27.42;13.20;;;;;;;-0.49;81.53;92454.13;5111812;28;20087;-46
2021/01/13 02:19:47;;;;;;;24.48;13.65;;;;;;;-0.59;81.24;92455.69;5110255;28;20693;-42
2021/01/13 02:22:18;;;;;;;24.63;11.77;;;;;;;-0.53;80.99;92456.38;5111640;28;20020;-43
2021/01/13 02:25:05;;;;;;;31.38;16.30;;;;;;;-0.61;81.09;92460.88;5111561;28;20027;-45
2021/01/13 02:27:51;;;;;;;24.52;13.73;;;;;;;-0.74;80.92;92466.09;5111582;28;20389;-42
2021/01/13 02:30:20;;;;;;;24.42;12.48;;;;;;;-0.75;81.34;92472.75;5110255;28;20027;-45
2021/01/13 02:32:47;;;;;;;;;;;;;;;-0.86;81.37;92478.22;5110475;28;20036;-47
2021/01/13 02:35:18;;;;;;;29.88;13.98;;;;;;;-0.77;81.87;92477.94;5111508;28;19908;-44
2021/01/13 02:37:58;;;;;;;27.23;14.98;;;;;;;-0.75;81.83;92483.59;5111464;28;20072;-43
2021/01/13 02:40:23;;;;;;;24.83;11.88;;;;;;;-0.77;82.05;92483.34;5111369;28;20031;-45
2021/01/13 02:43:00;;;;;;;25.52;13.52;;;;;;;-0.86;81.97;92478.22;5110267;28;20072;-46
2021/01/13 02:45:26;;;;;;;20.83;11.52;;;;;;;-0.81;81.41;92483.63;5111272;28;20032;-43
2021/01/13 02:48:00;;;;;;;25.67;12.93;;;;;;;-0.77;81.51;92488.78;5111275;28;20042;-42
2021/01/13 02:50:37;;;;;;;26.33;13.75;;;;;;;-0.84;81.53;92479.19;5090856;28;20027;-44
2021/01/13 02:53:14;;;;;;;24.88;12.57;;;;;;;-0.80;81.60;92476.94;5090637;28;20024;-44
2021/01/13 02:55:41;;;;;;;27.48;13.57;;;;;;;-0.83;81.59;92477.22;5090828;28;20024;-42
2021/01/13 02:58:09;;;;;;;27.02;13.15;;;;;;;-0.81;81.49;92472.78;5090702;28;20027;-45
2021/01/13 03:00:36;;;;;;;26.73;12.35;;;;;;;-0.72;80.79;92477.19;5090771;28;20024;-45
2021/01/13 03:03:02;;;;;;;21.88;12.20;;;;;;;-0.65;81.23;92473.91;5090373;28;20043;-44
2021/01/13 03:05:28;;;;;;;22.77;12.20;;;;;;;-0.69;81.07;92465.31;5090622;28;20032;-46
2021/01/13 03:07:58;;;;;;;23.27;11.88;;;;;;;-0.64;80.74;92475.41;5090741;28;20020;-42
2021/01/13 03:10:26;;;;;;;29.58;12.50;;;;;;;-0.66;80.62;92469.00;5090603;28;20066;-45
2021/01/13 03:13:10;;;;;;;24.05;12.35;;;;;;;-0.74;80.90;92468.06;5090524;28;20074;-45
2021/01/13 03:15:37;;;;;;;20.90;11.35;;;;;;;-0.65;80.74;92468.50;5090682;28;20066;-42
2021/01/13 03:18:06;;;;;;;24.80;12.70;;;;;;;-0.71;81.31;92473.22;5090554;28;20034;-45
2021/01/13 03:20:50;;;;;;;29.67;13.23;;;;;;;-0.68;81.02;92474.94;5090603;28;20028;-43
2021/01/13 03:23:21;;;;;;;22.98;12.35;;;;;;;-0.73;81.16;92466.81;5090521;28;20027;-44
2021/01/13 03:25:52;;;;;;;26.52;12.98;;;;;;;-0.56;80.76;92470.22;5090700;28;20024;-47
2021/01/13 03:28:21;;;;;;;29.38;14.18;;;;;;;-0.56;81.08;92473.63;5090420;28;20028;-45
2021/01/13 03:30:49;;;;;;;24.05;12.05;;;;;;;-0.51;80.52;92464.00;5089209;28;20044;-46
2021/01/13 03:33:24;;;;;;;27.98;13.73;;;;;;;-0.48;80.50;92463.75;5090315;28;20148;-42
2021/01/13 03:35:55;;;;;;;30.98;15.43;;;;;;;-0.55;80.79;92472.41;5090351;28;20077;-43
2021/01/13 03:38:20;;;;;;;20.10;11.85;;;;;;;-0.47;80.63;92470.63;5090514;28;20102;-43
2021/01/13 03:40:48;;;;;;;24.08;13.68;;;;;;;-0.49;80.81;92475.81;5090467;28;20099;-43
2021/01/13 03:43:21;;;;;;;24.90;12.63;;;;;;;-0.47;80.51;92481.47;5090274;28;20020;-45
2021/01/13 03:45:53;;;;;;;28.63;14.00;;;;;;;-0.33;80.41;92475.00;5090297;28;20027;-44
2021/01/13 03:48:46;;;;;;;29.88;15.10;;;;;;;-0.42;80.27;92483.44;5090191;28;20115;-44
2021/01/13 03:51:21;;;;;;;28.52;13.57;;;;;;;-0.42;79.79;92485.41;5090181;28;20024;-45
2021/01/13 03:53:51;;;;;;;22.55;11.85;;;;;;;-0.67;80.12;92483.81;5090176;28;20048;-43
2021/01/13 03:56:25;;;;;;;26.92;14.10;;;;;;;-0.66;80.93;92482.56;5090164;28;20053;-43
2021/01/13 03:58:51;;;;;;;28.83;15.68;;;;;;;-0.97;80.97;92476.28;5090480;28;20467;-43
2021/01/13 04:01:40;;;;;;;32.65;15.82;;;;;;;-0.93;81.87;92476.03;5089988;28;20066;-44
2021/01/13 04:04:08;;;;;;;30.58;15.30;;;;;;;-1.03;82.26;92482.97;5090195;28;20024;-42
2021/01/13 04:06:44;;;;;;;26.90;14.93;;;;;;;-1.10;82.40;92475.34;5090037;28;20024;-43
2021/01/13 04:09:20;;;;;;;30.65;15.70;;;;;;;-0.96;82.41;92488.59;5089977;28;20012;-45
2021/01/13 04:11:49;;;;;;;32.80;15.20;;;;;;;-0.75;82.06;92483.59;5089996;28;20511;-42
2021/01/13 04:14:18;;;;;;;34.92;15.65;;;;;;;-0.68;81.38;92485.78;5088755;28;20053;-44
2021/01/13 04:16:44;;;;;;;29.73;14.68;;;;;;;-0.65;80.92;92492.19;5092416;28;20024;-44
2021/01/13 04:19:10;;;;;;;30.95;15.48;;;;;;;-0.74;81.00;92500.59;5093524;28;20489;-43
2021/01/13 04:21:36;;;;;;;35.08;15.43;;;;;;;-0.73;81.10;92489.25;5093499;28;20031;-44
2021/01/13 04:24:02;;;;;;;30.20;14.77;;;;;;;-0.63;80.58;92497.84;5093634;28;20475;-42
2021/01/13 04:26:28;;;;;;;27.80;15.70;;;;;;;-0.66;80.71;92491.44;5093282;28;20364;-42
2021/01/13 04:28:54;;;;;;;24.77;13.27;;;;;;;-0.71;79.82;92492.19;5099619;28;20024;-45
2021/01/13 04:31:20;;;;;;;27.98;13.48;;;;;;;-0.83;80.88;92490.78;5113878;28;20070;-43
2021/01/13 04:33:46;;;;;;;32.95;15.23;;;;;;;-0.84;81.24;92497.41;5113625;28;20106;-44
2021/01/13 04:36:12;;;;;;;33.38;16.17;;;;;;;-0.92;81.06;92497.22;5113643;28;20427;-42
2021/01/13 04:38:38;;;;;;;35.30;15.82;;;;;;;-0.86;81.30;92497.19;5113794;28;20471;-42
2021/01/13 04:41:03;;;;;;;31.15;14.45;;;;;;;-0.84;81.53;92517.13;5113594;28;20047;-43
2021/01/13 04:44:00;;;;;;;30.88;14.10;;;;;;;-0.88;81.57;92508.53;5113536;28;20478;-44
2021/01/13 04:46:36;;;;;;;26.45;13.88;;;;;;;-0.98;81.63;92515.47;5113311;27;20518;-43
2021/01/13 04:49:02;;;;;;;34.83;15.48;;;;;;;-1.13;81.63;92514.28;5113502;28;20030;-43
2021/01/13 04:51:37;;;;;;;28.33;14.38;;;;;;;-1.19;82.39;92518.97;5113179;28;20023;-42
2021/01/13 04:54:06;;;;;;;32.17;14.15;;;;;;;-1.17;82.56;92521.91;5113447;28;20023;-42
2021/01/13 04:56:38;;;;;;;35.83;17.08;;;;;;;-1.20;82.83;92523.63;5113196;28;20095;-41
2021/01/13 04:59:29;;;;;;;34.70;14.38;;;;;;;-1.23;82.85;92529.28;5113345;28;20541;-44
2021/01/13 05:02:04;;;;;;;33.92;16.88;;;;;;;-1.04;82.53;92533.69;5107950;28;20428;-42
2021/01/13 05:05:01;;;;;;;36.95;16.05;;;;;;;-1.08;82.54;92530.50;5113252;28;20412;-44
2021/01/13 05:07:30;;;;;;;26.63;13.70;;;;;;;-1.03;82.22;92529.00;5112970;27;20031;-44
2021/01/13 05:10:09;;;;;;;26.48;14.48;;;;;;;-0.92;82.10;92531.69;5112950;28;20038;-42
2021/01/13 05:12:58;;;;;;;28.83;14.02;;;;;;;-0.88;81.96;92534.88;5112848;28;20030;-42
2021/01/13 05:15:28;;;;;;;36.10;14.63;;;;;;;-0.83;82.39;92526.75;5112931;28;20020;-43
2021/01/13 05:17:59;;;;;;;34.55;17.23;;;;;;;-0.81;81.78;92526.97;5112889;28;20023;-43
2021/01/13 05:20:27;;;;;;;30.55;16.20;;;;;;;-0.75;81.75;92529.66;5112038;28;20135;-42
2021/01/13 05:22:54;;;;;;;36.33;16.45;;;;;;;-0.71;81.51;92532.84;5112810;28;20445;-44
2021/01/13 05:25:43;;;;;;;30.50;15.95;;;;;;;-0.80;81.20;92535.81;5112587;28;20110;-43
2021/01/13 05:28:08;;;;;;;32.25;13.43;;;;;;;-0.66;80.44;92529.38;5112595;28;20027;-42
2021/01/13 05:30:39;;;;;;;28.60;14.77;;;;;;;-0.68;80.39;92540.00;5112650;28;20027;-43
2021/01/13 05:33:06;;;;;;;32.03;14.77;;;;;;;-0.77;79.83;92542.97;5112356;28;20055;-42
2021/01/13 05:35:36;;;;;;;29.85;14.45;;;;;;;-0.85;80.70;92552.84;5112526;28;20055;-44
2021/01/13 05:38:05;;;;;;;34.85;16.23;;;;;;;-0.88;80.64;92560.00;5112302;28;20023;-45
2021/01/13 05:40:31;;;;;;;34.42;16.15;;;;;;;-1.00;81.03;92560.53;5112458;28;20049;-43
2021/01/13 05:42:57;;;;;;;35.20;18.83;;;;;;;-0.92;81.48;92558.78;5112373;28;20015;-42
2021/01/13 05:45:24;;;;;;;34.47;17.02;;;;;;;-0.82;81.34;92568.09;5111002;28;20408;-42
2021/01/13 05:47:56;;;;;;;35.00;16.38;;;;;;;-0.88;81.42;92572.81;5112300;28;20023;-43
2021/01/13 05:50:23;;;;;;;37.00;14.07;;;;;;;-0.82;80.61;92568.09;5112217;28;20164;-46
2021/01/13 05:52:50;;;;;;;30.85;14.25;;;;;;;-1.00;80.88;92568.66;5112051;28;20035;-43
2021/01/13 05:55:17;;;;;;;34.35;17.27;;;;;;;-1.07;82.20;92572.63;5112125;28;20031;-44
2021/01/13 05:57:53;;;;;;;36.05;18.02;;;;;;;-0.96;81.64;92569.13;5112072;28;20024;-45
2021/01/13 06:00:19;;;;;;;50.25;19.23;;;;;;;-0.92;82.06;92564.19;5112107;28;20026;-43
2021/01/13 06:02:46;;;;;;;39.08;17.73;;;;;;;-0.82;81.87;92576.25;5111792;28;20055;-44
2021/01/13 06:05:13;;;;;;;36.78;18.13;;;;;;;-0.80;81.59;92573.75;5110762;28;20022;-44
2021/01/13 06:07:41;;;;;;;38.17;19.38;;;;;;;-0.72;81.44;92569.31;5111830;28;20484;-42
2021/01/13 06:10:07;;;;;;;39.08;17.58;;;;;;;-0.73;81.93;92581.38;5094215;28;20024;-43
2021/01/13 06:12:41;;;;;;;37.38;17.02;;;;;;;-0.71;81.21;92578.91;5091289;28;20035;-44
2021/01/13 06:15:08;;;;;;;28.52;16.15;;;;;;;-0.76;81.88;92560.72;5091282;28;20035;-42
2021/01/13 06:17:34;;;;;;;35.42;17.42;;;;;;;-0.58;81.44;92579.13;5091339;28;20020;-42
2021/01/13 06:20:05;;;;;;;43.65;19.17;;;;;;;-0.49;80.89;92584.28;5090109;28;20031;-44
2021/01/13 06:22:32;;;;;;;36.03;17.30;;;;;;;-0.55;80.99;92583.56;5091322;28;20036;-44
2021/01/13 06:24:59;;;;;;;41.08;18.45;;;;;;;-0.50;80.76;92580.09;5091200;28;20495;-45
2021/01/13 06:27:45;;;;;;;30.85;16.25;;;;;;;-0.39;80.40;92585.44;5091194;28;20019;-42
2021/01/13 06:30:20;;;;;;;44.78;15.48;;;;;;;-0.39;80.70;92582.03;5091204;28;20034;-44
2021/01/13 06:33:08;;;;;;;39.22;19.35;;;;;;;-0.24;79.56;92575.03;5090985;28;20085;-44
2021/01/13 06:35:42;;;;;;;44.00;19.73;;;;;;;-0.22;79.54;92575.25;5090992;28;20026;-43
2021/01/13 06:38:13;;;;;;;55.75;24.02;;;;;;;-0.16;78.85;92578.72;5090544;28;20024;-44
2021/01/13 06:40:39;;;;;;;40.80;19.40;;;;;;;-0.10;78.80;92584.84;5089860;28;20027;-43
2021/01/13 06:43:14;;;;;;;42.13;20.35;;;;;;;-0.08;78.90;92585.06;5089893;28;20020;-45
2021/01/13 06:45:39;;;;;;;40.28;20.40;;;;;;;-0.07;78.99;92586.56;5090945;28;20028;-44
2021/01/13 06:48:06;;;;;;;32.63;16.92;;;;;;;-0.06;79.28;92588.03;5090975;28;20491;-43
2021/01/13 06:50:38;;;;;;;34.17;17.00;;;;;;;-0.05;79.12;92589.50;5090886;28;20051;-42
2021/01/13 06:53:08;;;;;;;28.75;15.23;;;;;;;-0.01;78.77;92589.22;5090745;28;20424;-44
2021/01/13 06:55:34;;;;;;;27.63;14.18;;;;;;;0.03;78.63;92597.09;5090877;28;20046;-43
2021/01/13 06:58:09;;;;;;;30.58;15.98;;;;;;;0.04;78.46;92590.44;5090901;28;20458;-45
2021/01/13 07:00:35;;;;;;;42.15;20.15;;;;;;;0.12;78.41;92586.69;5090799;28;20020;-43
2021/01/13 07:03:25;;;;;;;60.00;25.02;;;;;;;0.16;78.30;92594.56;5090567;28;20051;-45
2021/01/13 07:05:52;;;;;;;32.33;17.00;;;;;;;0.15;77.84;92599.28;5090781;28;20028;-44
2021/01/13 07:08:18;;;;;;;30.08;14.75;;;;;;;0.16;78.39;92600.00;5090672;28;20024;-44
2021/01/13 07:10:44;;;;;;;30.90;15.55;;;;;;;0.25;77.44;92608.56;5090879;28;20024;-45
2021/01/13 07:13:10;;;;;;;28.25;14.57;;;;;;;0.18;77.56;92605.66;5090627;28;20476;-44
2021/01/13 07:15:38;;;;;;;31.35;16.23;;;;;;;0.13;77.38;92603.72;5089284;28;20032;-43
2021/01/13 07:18:04;;;;;;;38.72;19.20;;;;;;;-0.02;77.92;92609.44;5090646;28;20022;-42
2021/01/13 07:20:30;;;;;;;33.65;17.52;;;;;;;-0.04;78.52;92618.09;5090636;28;20099;-42
2021/01/13 07:22:56;;;;;;;35.63;18.98;;;;;;;0.04;77.91;92618.31;5089206;28;20508;-42
2021/01/13 07:25:22;;;;;;;28.80;16.08;;;;;;;0.03;78.16;92616.09;5089340;28;20035;-44
2021/01/13 07:27:50;;;;;;;34.63;15.27;;;;;;;0.10;78.11;92621.00;5090423;28;20024;-45
2021/01/13 07:30:18;;;;;;;35.25;16.30;;;;;;;0.12;77.81;92613.09;5090560;28;20035;-43
2021/01/13 07:32:51;;;;;;;37.95;18.42;;;;;;;0.06;78.12;92615.84;5089207;28;20031;-42
2021/01/13 07:35:17;;;;;;;43.40;19.85;;;;;;;0.12;78.10;92613.84;5089195;28;20515;-44
2021/01/13 07:37:59;;;;;;;37.72;20.00;;;;;;;0.21;77.88;92610.09;5089256;28;20111;-42
2021/01/13 07:40:27;;;;;;;37.92;20.30;;;;;;;0.32;77.56;92607.31;5090248;28;20028;-43
2021/01/13 07:43:05;;;;;;;34.17;18.42;;;;;;;0.41;77.75;92618.59;5090360;28;20031;-43
2021/01/13 07:45:38;;;;;;;46.53;17.77;;;;;;;0.47;76.33;92619.31;5090404;28;20089;-43
2021/01/13 07:48:13;;;;;;;47.47;19.67;;;;;;;0.56;77.16;92620.97;5090456;28;20048;-42
2021/01/13 07:50:47;;;;;;;69.80;31.67;;;;;;;0.57;76.95;92617.00;5091261;28;20023;-43
2021/01/13 07:53:25;;;;;;;48.40;24.63;;;;;;;0.57;75.94;92617.75;5094024;28;20133;-44
2021/01/13 07:55:59;;;;;;;42.95;21.98;;;;;;;0.52;75.67;92626.66;5094221;28;20059;-43
2021/01/13 07:58:33;;;;;;;45.17;21.52;;;;;;;0.41;76.42;92623.28;5093976;28;20063;-43
2021/01/13 08:01:19;;;;;;;38.22;18.60;;;;;;;0.38;76.60;92629.72;5094099;28;20044;-45
2021/01/13 08:04:12;;;;;;;42.88;22.00;;;;;;;0.47;77.24;92629.44;5094071;28;20020;-43
2021/01/13 08:06:48;;;;;;;28.17;14.25;;;;;;;0.64;76.45;92630.03;5093980;28;20081;-44
2021/01/13 08:09:20;;;;;;;29.00;15.63;;;;;;;0.69;76.16;92627.28;5094002;28;20020;-44
2021/01/13 08:11:52;;;;;;;28.42;13.77;;;;;;;0.82;75.73;92628.69;5093693;28;20050;-47
2021/01/13 08:14:54;;;;;;;31.15;15.63;;;;;;;0.90;76.01;92633.06;5093970;28;20041;-43
2021/01/13 08:17:33;;;;;;;23.63;12.40;;;;;;;0.89;75.39;92630.84;5093793;28;20036;-43
2021/01/13 08:20:04;;;;;;;;;;;;;;;0.91;75.30;92634.53;5094167;28;20070;-42
2021/01/13 08:22:30;;;;;;;34.00;15.23;;;;;;;0.85;75.56;92636.53;5093685;28;19915;-43
2021/01/13 08:25:08;;;;;;;31.65;16.00;;;;;;;0.88;76.03;92637.53;5093578;28;20405;-43
2021/01/13 08:27:33;;;;;;;34.53;18.10;;;;;;;0.77;75.32;92632.91;5093706;28;20039;-42
2021/01/13 08:29:59;;;;;;;35.67;16.15;;;;;;;0.74;75.46;92650.97;5093563;28;20032;-46
2021/01/13 08:32:41;;;;;;;33.22;15.77;;;;;;;0.78;75.91;92639.81;5092130;28;20111;-44
2021/01/13 08:35:07;;;;;;;35.17;15.45;;;;;;;0.86;76.01;92657.06;5093345;28;20028;-45
2021/01/13 08:37:34;;;;;;;34.05;17.77;;;;;;;0.80;75.17;92650.94;5093239;28;20032;-43
2021/01/13 08:40:26;;;;;;;38.78;17.52;;;;;;;0.93;75.48;92648.38;5092803;28;20108;-44
2021/01/13 08:43:12;;;;;;;34.22;16.48;;;;;;;1.13;74.79;92647.19;5093217;28;20032;-44
2021/01/13 08:45:45;;;;;;;29.38;15.73;;;;;;;1.05;74.85;92652.47;5093200;28;20484;-42
2021/01/13 08:48:12;;;;;;;28.85;14.73;;;;;;;1.10;74.76;92654.41;5093176;28;20024;-43
2021/01/13 08:50:39;;;;;;;29.80;14.35;;;;;;;1.19;74.58;92658.78;5093157;28;20027;-46
2021/01/13 08:53:05;;;;;;;30.30;14.68;;;;;;;1.18;74.00;92660.00;5092878;28;20051;-44
2021/01/13 08:55:31;;;;;;;29.38;15.20;;;;;;;1.19;74.33;92666.94;5092987;28;20105;-43
2021/01/13 08:58:08;;;;;;;35.47;17.15;;;;;;;1.20;74.40;92668.38;5092947;28;20028;-41
2021/01/13 09:00:35;;;;;;;35.20;15.60;;;;;;;1.14;74.59;92675.84;5091713;28;20111;-44
2021/01/13 09:03:25;;;;;;;40.30;18.25;;;;;;;1.18;75.12;92670.88;5091015;28;20418;-41
2021/01/13 09:05:54;;;;;;;28.80;14.80;;;;;;;1.33;74.64;92671.25;5092768;28;20532;-42
2021/01/13 09:08:30;;;;;;;30.55;15.57;;;;;;;1.39;74.58;92664.50;5092903;28;20470;-44
2021/01/13 09:10:56;;;;;;;26.67;13.93;;;;;;;1.49;74.54;92673.09;5092733;28;20401;-44
2021/01/13 09:13:43;;;;;;;33.58;14.65;;;;;;;1.40;74.16;92666.00;5092466;28;20035;-42
2021/01/13 09:27:12;;;;;;;36.58;19.10;;;;;;;2.04;71.55;92669.03;5129030;27;20412;-43
2021/01/13 09:29:56;;;;;;;34.67;16.45;;;;;;;1.78;71.30;92666.84;5128853;27;20360;-41
2021/01/13 09:32:22;;;;;;;32.22;15.25;;;;;;;1.63;72.87;92666.50;5128925;27;20020;-41
2021/01/13 09:34:49;;;;;;;33.60;15.98;;;;;;;1.64;73.07;92661.81;5127476;28;20055;-41
2021/01/13 09:37:15;;;;;;;36.63;17.38;;;;;;;1.67;73.01;92660.78;5128599;27;20084;-42
2021/01/13 09:39:56;;;;;;;37.83;17.17;;;;;;;1.54;73.31;92653.97;5128672;27;20085;-43
2021/01/13 09:42:23;;;;;;;34.85;16.30;;;;;;;1.62;73.06;92651.44;5128595;27;20113;-45
2021/01/13 09:44:59;;;;;;;39.90;18.60;;;;;;;1.76;73.53;92649.53;5127229;28;20031;-41
2021/01/13 09:47:26;;;;;;;34.10;17.50;;;;;;;1.89;73.25;92649.66;5128501;27;20080;-42
2021/01/13 09:49:57;;;;;;;33.70;15.75;;;;;;;1.98;71.94;92652.75;5128352;27;20019;-41
2021/01/13 09:52:26;;;;;;;34.83;16.30;;;;;;;2.08;72.17;92651.16;5128518;27;20023;-42
2021/01/13 09:54:53;;;;;;;35.65;17.55;;;;;;;1.99;72.11;92645.34;5128271;27;20019;-42
2021/01/13 09:57:19;;;;;;;39.03;20.75;;;;;;;1.88;71.84;92640.03;5128359;27;20034;-41
2021/01/13 10:00:06;;;;;;;52.28;26.92;;;;;;;2.02;72.16;92642.31;5128314;27;20046;-41
2021/01/13 10:02:32;;;;;;;49.17;21.00;;;;;;;2.14;71.19;92632.03;5128526;27;20030;-41
2021/01/13 10:04:57;;;;;;;37.45;19.00;;;;;;;2.18;71.63;92638.66;5128013;27;20019;-41
2021/01/13 10:07:29;;;;;;;39.88;17.80;;;;;;;2.19;72.28;92628.50;5127988;27;20088;-42
2021/01/13 10:09:54;;;;;;;37.38;18.58;;;;;;;2.32;71.72;92630.56;5126887;28;20031;-41
2021/01/13 10:12:20;;;;;;;32.85;15.68;;;;;;;2.40;70.51;92621.31;5128000;27;20019;-43
2021/01/13 10:15:02;;;;;;;27.75;14.20;;;;;;;2.44;70.31;92608.13;5126712;28;20491;-41
2021/01/13 10:17:27;;;;;;;29.83;15.75;;;;;;;2.49;70.22;92622.91;5127813;27;20103;-42
2021/01/13 10:19:54;;;;;;;33.85;18.38;;;;;;;2.41;70.08;92630.19;5127857;27;20114;-42
2021/01/13 10:22:24;;;;;;;34.15;17.90;;;;;;;2.30;70.53;92629.09;5127923;27;20032;-41
2021/01/13 10:24:52;;;;;;;61.00;25.88;;;;;;;1.98;71.16;92624.81;5127523;27;20028;-41
2021/01/13 10:27:18;;;;;;;45.72;21.60;;;;;;;2.08;72.00;92613.03;5119020;27;20067;-42
2021/01/13 10:29:45;;;;;;;28.63;15.13;;;;;;;1.95;71.24;92612.22;5113914;28;20035;-41
2021/01/13 10:32:11;;;;;;;56.25;25.23;;;;;;;2.02;71.17;92627.97;5113928;28;20047;-41
2021/01/13 10:34:37;;;;;;;47.13;24.50;;;;;;;2.07;72.29;92633.34;5113869;28;20027;-41
2021/01/13 10:37:02;;;;;;;28.98;15.00;;;;;;;1.97;71.27;92623.34;5113900;28;20035;-41
2021/01/13 10:39:28;;;;;;;35.47;15.88;;;;;;;1.93;72.28;92623.63;5113798;28;20498;-44
2021/01/13 10:42:04;;;;;;;31.10;15.98;;;;;;;1.87;72.61;92622.94;5113739;28;20023;-41
2021/01/13 10:44:30;;;;;;;29.40;15.82;;;;;;;1.95;72.70;92607.50;5113722;28;20094;-43
2021/01/13 10:47:00;;;;;;;32.72;16.20;;;;;;;1.98;72.15;92613.91;5113580;28;20654;-42
2021/01/13 10:49:42;;;;;;;33.00;16.17;;;;;;;1.95;72.07;92609.50;5113583;28;20029;-41
2021/01/13 10:52:16;;;;;;;29.58;15.82;;;;;;;1.89;72.61;92603.38;5113631;28;20023;-42
2021/01/13 10:54:53;;;;;;;33.13;14.52;;;;;;;1.72;72.08;92600.88;5113536;27;20020;-42
2021/01/13 10:57:37;;;;;;;32.03;13.95;;;;;;;1.58;72.99;92601.28;5113408;28;20119;-43
2021/01/13 11:00:11;;;;;;;23.50;13.70;;;;;;;1.60;72.63;92606.94;5113436;28;20114;-41
2021/01/13 11:02:37;;;;;;;24.60;12.43;;;;;;;1.50;72.97;92603.81;5113366;28;20022;-41
2021/01/13 11:05:03;;;;;;;31.95;12.55;;;;;;;1.57;72.93;92597.81;5113267;28;20066;-42
2021/01/13 11:07:40;;;;;;;24.95;12.85;;;;;;;1.63;72.61;92595.03;5113279;28;20395;-42
2021/01/13 11:10:09;;;;;;;26.80;13.52;;;;;;;1.62;73.01;92594.31;5113388;28;20057;-41
2021/01/13 11:12:35;;;;;;;23.58;11.48;;;;;;;1.59;72.67;92595.31;5113132;28;20590;-42
2021/01/13 11:15:05;;;;;;;25.38;13.13;;;;;;;1.59;73.29;92594.56;5113092;28;20124;-42
2021/01/13 11:17:32;;;;;;;21.17;12.48;;;;;;;1.61;72.87;92597.53;5113142;28;20092;-41
2021/01/13 11:19:59;;;;;;;20.83;11.43;;;;;;;1.53;73.14;92600.09;5113067;28;20563;-43
2021/01/13 11:22:48;;;;;;;28.08;12.60;;;;;;;1.49;73.00;92594.19;5112960;28;20012;-41
2021/01/13 11:25:19;;;;;;;25.15;11.38;;;;;;;1.49;73.79;92592.19;5112824;28;20200;-43
2021/01/13 11:28:13;;;;;;;26.05;11.70;;;;;;;1.38;73.07;92592.34;5112885;28;20119;-41
2021/01/13 11:30:43;;;;;;;24.40;12.00;;;;;;;1.23;73.04;92586.56;5112793;28;20787;-42
2021/01/13 11:33:11;;;;;;;26.70;13.55;;;;;;;1.25;74.24;92596.91;5112908;28;20061;-41
2021/01/13 11:35:44;;;;;;;23.27;12.23;;;;;;;1.17;74.54;92587.88;5112732;28;20023;-42
2021/01/13 11:38:10;;;;;;;23.50;12.70;;;;;;;1.21;74.48;92599.91;5111664;28;20411;-41
2021/01/13 11:40:38;;;;;;;30.23;15.73;;;;;;;1.06;74.98;92591.41;5112512;28;20028;-42
2021/01/13 11:43:35;;;;;;;19.55;11.45;;;;;;;1.15;74.69;92584.91;5111358;28;20055;-42
2021/01/13 11:46:14;;;;;;;24.08;12.80;;;;;;;1.22;74.76;92589.78;5112594;28;20049;-43
2021/01/13 11:48:52;;;;;;;33.83;16.08;;;;;;;1.30;74.58;92594.13;5112564;28;20023;-42
2021/01/13 11:51:18;;;;;;;39.05;20.25;;;;;;;1.39;74.81;92593.81;5112404;28;20034;-42
2021/01/13 11:53:47;;;;;;;30.10;16.25;;;;;;;1.41;74.53;92587.84;5111234;28;20023;-41
2021/01/13 11:56:12;;;;;;;34.92;18.00;;;;;;;1.44;74.50;92592.28;5111151;28;20020;-41
2021/01/13 11:58:47;;;;;;;23.52;12.85;;;;;;;1.48;74.63;92593.47;5112225;28;20408;-43
2021/01/13 12:01:12;;;;;;;28.10;15.73;;;;;;;1.49;73.77;92584.03;5110997;28;20023;-42
2021/01/13 12:03:38;;;;;;;42.63;18.45;;;;;;;1.49;74.14;92594.91;5112249;28;20153;-41
2021/01/13 12:06:07;;;;;;;29.60;15.90;;;;;;;1.53;74.36;92592.69;5112364;28;20510;-42
2021/01/13 12:08:33;;;;;;;29.10;15.50;;;;;;;1.56;74.16;92601.06;5111947;28;20562;-41
2021/01/13 12:10:59;;;;;;;25.60;12.77;;;;;;;1.39;75.10;92596.53;5112096;28;20020;-42
2021/01/13 12:13:30;;;;;;;28.23;14.32;;;;;;;1.22;75.12;92582.34;5111921;28;20110;-41
2021/01/13 12:16:03;;;;;;;25.05;11.63;;;;;;;1.50;74.68;92587.50;5111957;27;20012;-42
2021/01/13 12:18:42;;;;;;;29.23;15.13;;;;;;;1.56;74.50;92595.63;5111829;28;20035;-42